sensor_id;sensor_type;location;lat;lon;timestamp;P1;durP1;ratioP1;P2;durP2;ratioP2
75798;SDS011;65035;44.726;37.764;2023-02-01T00:00:46;4.13;;;2.72;;
75798;SDS011;65035;44.726;37.764;2023-02-01T00:01:49;3.40;;;2.00;;
75798;SDS011;65035;44.726;37.764;2023-02-01T00:02:52;3.10;;;1.70;;
75798;SDS011;65035;44.726;37.764;2023-02-01T00:03:55;3.55;;;2.47;;
75798;SDS011;65035;44.726;37.764;2023-02-01T00:04:57;4.07;;;2.45;;
75798;SDS011;65035;44.726;37.764;2023-02-01T00:06:00;3.35;;;2.50;;
75798;SDS011;65035;44.726;37.764;2023-02-01T00:07:03;3.72;;;2.15;;
75798;SDS011;65035;44.726;37.764;2023-02-01T00:08:06;3.75;;;2.47;;
75798;SDS011;65035;44.726;37.764;2023-02-01T00:09:10;3.38;;;2.28;;
75798;SDS011;65035;44.726;37.764;2023-02-01T00:10:13;3.47;;;2.28;;
75798;SDS011;65035;44.726;37.764;2023-02-01T00:11:16;3.42;;;1.90;;
75798;SDS011;65035;44.726;37.764;2023-02-01T00:12:19;3.35;;;1.75;;
75798;SDS011;65035;44.726;37.764;2023-02-01T00:13:21;3.40;;;2.13;;
75798;SDS011;65035;44.726;37.764;2023-02-01T00:14:24;3.33;;;2.30;;
75798;SDS011;65035;44.726;37.764;2023-02-01T00:15:27;4.07;;;1.52;;
75798;SDS011;65035;44.726;37.764;2023-02-01T00:16:30;3.78;;;2.28;;
75798;SDS011;65035;44.726;37.764;2023-02-01T00:17:34;3.13;;;1.75;;
75798;SDS011;65035;44.726;37.764;2023-02-01T00:18:36;4.18;;;2.88;;
75798;SDS011;65035;44.726;37.764;2023-02-01T00:19:39;3.67;;;1.85;;
75798;SDS011;65035;44.726;37.764;2023-02-01T00:20:45;3.08;;;1.90;;
75798;SDS011;65035;44.726;37.764;2023-02-01T00:21:49;3.42;;;2.03;;
75798;SDS011;65035;44.726;37.764;2023-02-01T00:22:51;4.05;;;2.13;;
75798;SDS011;65035;44.726;37.764;2023-02-01T00:23:54;2.78;;;1.75;;
75798;SDS011;65035;44.726;37.764;2023-02-01T00:24:57;3.30;;;1.95;;
75798;SDS011;65035;44.726;37.764;2023-02-01T00:26:03;2.88;;;1.85;;
75798;SDS011;65035;44.726;37.764;2023-02-01T00:27:07;4.05;;;2.15;;
75798;SDS011;65035;44.726;37.764;2023-02-01T00:28:10;4.03;;;2.70;;
75798;SDS011;65035;44.726;37.764;2023-02-01T00:29:15;3.63;;;2.15;;
75798;SDS011;65035;44.726;37.764;2023-02-01T00:30:20;3.42;;;1.58;;
75798;SDS011;65035;44.726;37.764;2023-02-01T00:31:23;3.05;;;1.95;;
75798;SDS011;65035;44.726;37.764;2023-02-01T00:32:28;3.78;;;1.85;;
75798;SDS011;65035;44.726;37.764;2023-02-01T00:33:31;3.65;;;2.20;;
75798;SDS011;65035;44.726;37.764;2023-02-01T00:34:35;3.10;;;2.10;;
75798;SDS011;65035;44.726;37.764;2023-02-01T00:35:38;3.28;;;1.85;;
75798;SDS011;65035;44.726;37.764;2023-02-01T00:36:41;3.92;;;2.25;;
75798;SDS011;65035;44.726;37.764;2023-02-01T00:37:44;4.10;;;2.53;;
75798;SDS011;65035;44.726;37.764;2023-02-01T00:38:47;3.50;;;2.38;;
75798;SDS011;65035;44.726;37.764;2023-02-01T00:39:50;3.45;;;2.00;;
75798;SDS011;65035;44.726;37.764;2023-02-01T00:40:53;3.05;;;1.88;;
75798;SDS011;65035;44.726;37.764;2023-02-01T00:41:56;2.72;;;1.73;;
75798;SDS011;65035;44.726;37.764;2023-02-01T00:42:59;3.30;;;1.83;;
75798;SDS011;65035;44.726;37.764;2023-02-01T00:44:02;3.50;;;2.13;;
75798;SDS011;65035;44.726;37.764;2023-02-01T00:45:05;3.03;;;1.83;;
75798;SDS011;65035;44.726;37.764;2023-02-01T00:46:09;3.88;;;2.10;;
75798;SDS011;65035;44.726;37.764;2023-02-01T00:47:12;2.90;;;1.88;;
75798;SDS011;65035;44.726;37.764;2023-02-01T00:48:15;3.40;;;1.67;;
75798;SDS011;65035;44.726;37.764;2023-02-01T00:49:18;3.88;;;2.13;;
75798;SDS011;65035;44.726;37.764;2023-02-01T00:50:20;3.33;;;2.17;;
75798;SDS011;65035;44.726;37.764;2023-02-01T00:51:25;2.83;;;1.90;;
75798;SDS011;65035;44.726;37.764;2023-02-01T00:52:29;3.40;;;2.53;;
75798;SDS011;65035;44.726;37.764;2023-02-01T00:53:32;2.85;;;1.52;;
75798;SDS011;65035;44.726;37.764;2023-02-01T00:54:36;2.55;;;1.80;;
75798;SDS011;65035;44.726;37.764;2023-02-01T00:55:39;3.03;;;2.05;;
75798;SDS011;65035;44.726;37.764;2023-02-01T00:56:43;3.80;;;2.30;;
75798;SDS011;65035;44.726;37.764;2023-02-01T00:57:45;2.95;;;1.90;;
75798;SDS011;65035;44.726;37.764;2023-02-01T00:58:48;3.10;;;2.25;;
75798;SDS011;65035;44.726;37.764;2023-02-01T00:59:51;2.88;;;1.77;;
75798;SDS011;65035;44.726;37.764;2023-02-01T01:02:29;3.30;;;2.00;;
75798;SDS011;65035;44.726;37.764;2023-02-01T01:03:33;3.80;;;1.88;;
75798;SDS011;65035;44.726;37.764;2023-02-01T01:04:37;3.28;;;1.90;;
75798;SDS011;65035;44.726;37.764;2023-02-01T01:05:40;3.30;;;2.00;;
75798;SDS011;65035;44.726;37.764;2023-02-01T01:06:43;3.25;;;2.03;;
75798;SDS011;65035;44.726;37.764;2023-02-01T01:07:46;3.92;;;2.25;;
75798;SDS011;65035;44.726;37.764;2023-02-01T01:08:50;4.13;;;2.28;;
75798;SDS011;65035;44.726;37.764;2023-02-01T01:09:57;2.58;;;1.35;;
75798;SDS011;65035;44.726;37.764;2023-02-01T01:11:04;3.05;;;1.65;;
75798;SDS011;65035;44.726;37.764;2023-02-01T01:12:15;3.05;;;1.58;;
75798;SDS011;65035;44.726;37.764;2023-02-01T01:13:18;3.00;;;1.83;;
75798;SDS011;65035;44.726;37.764;2023-02-01T01:14:21;2.90;;;1.83;;
75798;SDS011;65035;44.726;37.764;2023-02-01T01:15:25;2.38;;;1.40;;
75798;SDS011;65035;44.726;37.764;2023-02-01T01:16:29;3.05;;;1.88;;
75798;SDS011;65035;44.726;37.764;2023-02-01T01:17:33;3.17;;;1.90;;
75798;SDS011;65035;44.726;37.764;2023-02-01T01:18:36;4.07;;;2.00;;
75798;SDS011;65035;44.726;37.764;2023-02-01T01:19:39;3.05;;;1.77;;
75798;SDS011;65035;44.726;37.764;2023-02-01T01:20:42;2.70;;;1.55;;
75798;SDS011;65035;44.726;37.764;2023-02-01T01:21:45;2.50;;;1.77;;
75798;SDS011;65035;44.726;37.764;2023-02-01T01:22:48;3.65;;;1.77;;
75798;SDS011;65035;44.726;37.764;2023-02-01T01:23:51;3.72;;;2.33;;
75798;SDS011;65035;44.726;37.764;2023-02-01T01:24:54;2.92;;;1.55;;
75798;SDS011;65035;44.726;37.764;2023-02-01T01:25:57;2.83;;;1.35;;
75798;SDS011;65035;44.726;37.764;2023-02-01T01:26:59;3.10;;;2.00;;
75798;SDS011;65035;44.726;37.764;2023-02-01T01:28:02;2.88;;;2.33;;
75798;SDS011;65035;44.726;37.764;2023-02-01T01:29:05;2.60;;;1.83;;
75798;SDS011;65035;44.726;37.764;2023-02-01T01:30:08;3.85;;;2.08;;
75798;SDS011;65035;44.726;37.764;2023-02-01T01:31:12;3.40;;;2.30;;
75798;SDS011;65035;44.726;37.764;2023-02-01T01:32:17;2.50;;;1.38;;
75798;SDS011;65035;44.726;37.764;2023-02-01T01:33:20;3.33;;;2.08;;
75798;SDS011;65035;44.726;37.764;2023-02-01T01:34:23;3.33;;;2.33;;
75798;SDS011;65035;44.726;37.764;2023-02-01T01:35:25;3.47;;;1.98;;
75798;SDS011;65035;44.726;37.764;2023-02-01T01:36:30;2.40;;;1.77;;
75798;SDS011;65035;44.726;37.764;2023-02-01T01:37:33;2.60;;;1.95;;
75798;SDS011;65035;44.726;37.764;2023-02-01T01:38:38;3.72;;;2.47;;
75798;SDS011;65035;44.726;37.764;2023-02-01T01:39:44;3.70;;;2.03;;
75798;SDS011;65035;44.726;37.764;2023-02-01T01:40:47;2.75;;;1.60;;
75798;SDS011;65035;44.726;37.764;2023-02-01T01:41:52;3.85;;;2.55;;
75798;SDS011;65035;44.726;37.764;2023-02-01T01:42:58;2.88;;;2.08;;
75798;SDS011;65035;44.726;37.764;2023-02-01T01:44:02;4.40;;;2.22;;
75798;SDS011;65035;44.726;37.764;2023-02-01T01:45:23;3.65;;;1.73;;
75798;SDS011;65035;44.726;37.764;2023-02-01T01:46:36;3.92;;;2.17;;
75798;SDS011;65035;44.726;37.764;2023-02-01T01:47:44;2.95;;;1.42;;
75798;SDS011;65035;44.726;37.764;2023-02-01T01:50:14;3.42;;;2.33;;
75798;SDS011;65035;44.726;37.764;2023-02-01T01:51:22;2.72;;;1.25;;
75798;SDS011;65035;44.726;37.764;2023-02-01T01:52:26;2.55;;;1.30;;
75798;SDS011;65035;44.726;37.764;2023-02-01T01:53:33;2.90;;;1.90;;
75798;SDS011;65035;44.726;37.764;2023-02-01T01:54:41;2.25;;;1.63;;
75798;SDS011;65035;44.726;37.764;2023-02-01T01:55:49;3.67;;;2.00;;
75798;SDS011;65035;44.726;37.764;2023-02-01T01:56:56;4.28;;;2.72;;
75798;SDS011;65035;44.726;37.764;2023-02-01T01:58:08;2.67;;;1.75;;
75798;SDS011;65035;44.726;37.764;2023-02-01T01:59:14;2.95;;;1.70;;
75798;SDS011;65035;44.726;37.764;2023-02-01T02:00:17;3.72;;;1.45;;
75798;SDS011;65035;44.726;37.764;2023-02-01T02:01:23;3.38;;;1.85;;
75798;SDS011;65035;44.726;37.764;2023-02-01T02:02:26;3.38;;;1.75;;
75798;SDS011;65035;44.726;37.764;2023-02-01T02:03:39;2.85;;;1.88;;
75798;SDS011;65035;44.726;37.764;2023-02-01T02:04:46;3.33;;;2.03;;
75798;SDS011;65035;44.726;37.764;2023-02-01T02:06:54;2.42;;;1.70;;
75798;SDS011;65035;44.726;37.764;2023-02-01T02:08:05;3.22;;;2.05;;
75798;SDS011;65035;44.726;37.764;2023-02-01T02:09:07;2.88;;;1.38;;
75798;SDS011;65035;44.726;37.764;2023-02-01T02:10:11;2.75;;;1.45;;
75798;SDS011;65035;44.726;37.764;2023-02-01T02:11:16;4.05;;;1.25;;
75798;SDS011;65035;44.726;37.764;2023-02-01T02:12:19;3.15;;;1.65;;
75798;SDS011;65035;44.726;37.764;2023-02-01T02:13:22;2.90;;;1.75;;
75798;SDS011;65035;44.726;37.764;2023-02-01T02:14:25;3.25;;;1.42;;
75798;SDS011;65035;44.726;37.764;2023-02-01T02:15:29;3.67;;;1.83;;
75798;SDS011;65035;44.726;37.764;2023-02-01T02:17:16;3.28;;;1.90;;
75798;SDS011;65035;44.726;37.764;2023-02-01T02:18:23;2.70;;;1.52;;
75798;SDS011;65035;44.726;37.764;2023-02-01T02:19:51;3.22;;;1.85;;
75798;SDS011;65035;44.726;37.764;2023-02-01T02:28:45;3.13;;;2.00;;
75798;SDS011;65035;44.726;37.764;2023-02-01T02:33:57;4.45;;;2.10;;
75798;SDS011;65035;44.726;37.764;2023-02-01T02:36:21;3.92;;;1.35;;
75798;SDS011;65035;44.726;37.764;2023-02-01T02:37:40;3.25;;;2.05;;
75798;SDS011;65035;44.726;37.764;2023-02-01T02:38:57;2.35;;;1.83;;
75798;SDS011;65035;44.726;37.764;2023-02-01T02:41:37;2.58;;;1.35;;
75798;SDS011;65035;44.726;37.764;2023-02-01T02:43:22;3.70;;;1.80;;
75798;SDS011;65035;44.726;37.764;2023-02-01T02:45:07;4.38;;;1.42;;
75798;SDS011;65035;44.726;37.764;2023-02-01T02:46:38;2.88;;;1.17;;
75798;SDS011;65035;44.726;37.764;2023-02-01T02:48:42;3.22;;;1.48;;
75798;SDS011;65035;44.726;37.764;2023-02-01T02:49:49;2.85;;;1.55;;
75798;SDS011;65035;44.726;37.764;2023-02-01T02:51:27;2.88;;;1.13;;
75798;SDS011;65035;44.726;37.764;2023-02-01T02:53:15;3.42;;;1.75;;
75798;SDS011;65035;44.726;37.764;2023-02-01T02:54:41;2.95;;;1.70;;
75798;SDS011;65035;44.726;37.764;2023-02-01T02:55:54;2.80;;;1.48;;
75798;SDS011;65035;44.726;37.764;2023-02-01T02:57:22;2.60;;;1.60;;
75798;SDS011;65035;44.726;37.764;2023-02-01T02:58:47;2.97;;;1.40;;
75798;SDS011;65035;44.726;37.764;2023-02-01T03:00:10;2.45;;;1.27;;
75798;SDS011;65035;44.726;37.764;2023-02-01T03:01:34;3.50;;;1.33;;
75798;SDS011;65035;44.726;37.764;2023-02-01T03:02:57;3.17;;;2.35;;
75798;SDS011;65035;44.726;37.764;2023-02-01T03:04:18;3.47;;;1.55;;
75798;SDS011;65035;44.726;37.764;2023-02-01T03:05:24;2.65;;;1.45;;
75798;SDS011;65035;44.726;37.764;2023-02-01T03:06:29;3.88;;;1.70;;
75798;SDS011;65035;44.726;37.764;2023-02-01T03:09:10;3.20;;;1.60;;
75798;SDS011;65035;44.726;37.764;2023-02-01T03:11:27;3.40;;;1.25;;
75798;SDS011;65035;44.726;37.764;2023-02-01T03:12:51;2.50;;;1.02;;
75798;SDS011;65035;44.726;37.764;2023-02-01T03:13:59;3.17;;;1.35;;
75798;SDS011;65035;44.726;37.764;2023-02-01T03:15:08;2.55;;;1.48;;
75798;SDS011;65035;44.726;37.764;2023-02-01T03:16:23;3.00;;;1.42;;
75798;SDS011;65035;44.726;37.764;2023-02-01T03:17:32;3.05;;;1.58;;
75798;SDS011;65035;44.726;37.764;2023-02-01T03:18:51;3.05;;;2.10;;
75798;SDS011;65035;44.726;37.764;2023-02-01T03:20:00;3.70;;;2.08;;
75798;SDS011;65035;44.726;37.764;2023-02-01T03:21:09;3.78;;;2.03;;
75798;SDS011;65035;44.726;37.764;2023-02-01T03:22:25;3.33;;;2.47;;
75798;SDS011;65035;44.726;37.764;2023-02-01T03:23:34;3.35;;;1.75;;
75798;SDS011;65035;44.726;37.764;2023-02-01T03:24:41;4.38;;;1.73;;
75798;SDS011;65035;44.726;37.764;2023-02-01T03:26:00;3.40;;;1.27;;
75798;SDS011;65035;44.726;37.764;2023-02-01T03:27:05;3.10;;;1.13;;
75798;SDS011;65035;44.726;37.764;2023-02-01T03:28:11;3.75;;;1.52;;
75798;SDS011;65035;44.726;37.764;2023-02-01T03:29:16;2.78;;;1.77;;
75798;SDS011;65035;44.726;37.764;2023-02-01T03:30:24;3.75;;;1.52;;
75798;SDS011;65035;44.726;37.764;2023-02-01T03:31:34;2.70;;;1.45;;
75798;SDS011;65035;44.726;37.764;2023-02-01T03:32:38;2.58;;;1.42;;
75798;SDS011;65035;44.726;37.764;2023-02-01T03:34:11;4.00;;;1.90;;
75798;SDS011;65035;44.726;37.764;2023-02-01T03:35:16;3.53;;;1.77;;
75798;SDS011;65035;44.726;37.764;2023-02-01T03:40:36;3.45;;;2.00;;
75798;SDS011;65035;44.726;37.764;2023-02-01T03:41:42;2.95;;;2.10;;
75798;SDS011;65035;44.726;37.764;2023-02-01T03:42:51;3.65;;;1.83;;
75798;SDS011;65035;44.726;37.764;2023-02-01T03:45:26;3.78;;;1.52;;
75798;SDS011;65035;44.726;37.764;2023-02-01T03:46:39;2.50;;;1.42;;
75798;SDS011;65035;44.726;37.764;2023-02-01T03:48:03;3.42;;;1.25;;
75798;SDS011;65035;44.726;37.764;2023-02-01T03:49:11;2.17;;;0.85;;
75798;SDS011;65035;44.726;37.764;2023-02-01T03:50:19;2.55;;;1.30;;
75798;SDS011;65035;44.726;37.764;2023-02-01T03:51:27;2.40;;;1.23;;
75798;SDS011;65035;44.726;37.764;2023-02-01T03:52:33;2.45;;;1.00;;
75798;SDS011;65035;44.726;37.764;2023-02-01T03:53:39;3.15;;;1.20;;
75798;SDS011;65035;44.726;37.764;2023-02-01T03:54:43;2.67;;;1.17;;
75798;SDS011;65035;44.726;37.764;2023-02-01T03:55:47;2.17;;;0.88;;
75798;SDS011;65035;44.726;37.764;2023-02-01T03:58:12;2.58;;;1.80;;
75798;SDS011;65035;44.726;37.764;2023-02-01T03:59:16;2.50;;;1.15;;
75798;SDS011;65035;44.726;37.764;2023-02-01T04:00:20;2.33;;;0.85;;
75798;SDS011;65035;44.726;37.764;2023-02-01T04:01:26;3.08;;;1.48;;
75798;SDS011;65035;44.726;37.764;2023-02-01T04:02:31;2.83;;;1.55;;
75798;SDS011;65035;44.726;37.764;2023-02-01T04:03:34;2.75;;;1.73;;
75798;SDS011;65035;44.726;37.764;2023-02-01T04:04:36;3.10;;;1.42;;
75798;SDS011;65035;44.726;37.764;2023-02-01T04:05:40;2.70;;;0.80;;
75798;SDS011;65035;44.726;37.764;2023-02-01T04:06:43;2.75;;;1.08;;
75798;SDS011;65035;44.726;37.764;2023-02-01T04:07:46;2.67;;;1.40;;
75798;SDS011;65035;44.726;37.764;2023-02-01T04:08:49;2.42;;;1.02;;
75798;SDS011;65035;44.726;37.764;2023-02-01T04:09:52;2.08;;;0.85;;
75798;SDS011;65035;44.726;37.764;2023-02-01T04:10:55;2.42;;;1.20;;
75798;SDS011;65035;44.726;37.764;2023-02-01T04:11:57;3.67;;;1.38;;
75798;SDS011;65035;44.726;37.764;2023-02-01T04:13:00;3.83;;;1.88;;
75798;SDS011;65035;44.726;37.764;2023-02-01T04:14:03;2.38;;;0.95;;
75798;SDS011;65035;44.726;37.764;2023-02-01T04:15:06;2.72;;;0.93;;
75798;SDS011;65035;44.726;37.764;2023-02-01T04:17:13;2.95;;;1.23;;
75798;SDS011;65035;44.726;37.764;2023-02-01T04:18:15;2.50;;;1.50;;
75798;SDS011;65035;44.726;37.764;2023-02-01T04:19:18;2.70;;;1.50;;
75798;SDS011;65035;44.726;37.764;2023-02-01T04:20:21;3.58;;;0.90;;
75798;SDS011;65035;44.726;37.764;2023-02-01T04:21:25;2.45;;;1.10;;
75798;SDS011;65035;44.726;37.764;2023-02-01T04:22:31;2.30;;;0.85;;
75798;SDS011;65035;44.726;37.764;2023-02-01T04:23:36;3.60;;;1.25;;
75798;SDS011;65035;44.726;37.764;2023-02-01T04:24:39;4.18;;;0.77;;
75798;SDS011;65035;44.726;37.764;2023-02-01T04:25:42;3.80;;;1.65;;
75798;SDS011;65035;44.726;37.764;2023-02-01T04:26:45;2.67;;;0.82;;
75798;SDS011;65035;44.726;37.764;2023-02-01T04:27:47;3.40;;;0.90;;
75798;SDS011;65035;44.726;37.764;2023-02-01T04:28:50;2.70;;;1.10;;
75798;SDS011;65035;44.726;37.764;2023-02-01T04:29:54;2.75;;;0.82;;
75798;SDS011;65035;44.726;37.764;2023-02-01T04:30:59;3.00;;;1.58;;
75798;SDS011;65035;44.726;37.764;2023-02-01T04:32:02;2.83;;;1.17;;
75798;SDS011;65035;44.726;37.764;2023-02-01T04:33:05;3.67;;;1.17;;
75798;SDS011;65035;44.726;37.764;2023-02-01T04:34:07;4.15;;;0.75;;
75798;SDS011;65035;44.726;37.764;2023-02-01T04:35:10;4.07;;;0.60;;
75798;SDS011;65035;44.726;37.764;2023-02-01T04:36:13;4.38;;;0.65;;
75798;SDS011;65035;44.726;37.764;2023-02-01T04:37:21;2.30;;;0.63;;
75798;SDS011;65035;44.726;37.764;2023-02-01T04:38:24;3.28;;;1.02;;
75798;SDS011;65035;44.726;37.764;2023-02-01T04:39:27;3.10;;;1.15;;
75798;SDS011;65035;44.726;37.764;2023-02-01T04:40:29;3.22;;;1.05;;
75798;SDS011;65035;44.726;37.764;2023-02-01T04:41:32;4.35;;;1.02;;
75798;SDS011;65035;44.726;37.764;2023-02-01T04:42:35;3.15;;;1.13;;
75798;SDS011;65035;44.726;37.764;2023-02-01T04:43:38;3.80;;;1.58;;
75798;SDS011;65035;44.726;37.764;2023-02-01T04:44:40;3.30;;;1.15;;
75798;SDS011;65035;44.726;37.764;2023-02-01T04:45:47;4.25;;;1.02;;
75798;SDS011;65035;44.726;37.764;2023-02-01T04:46:51;3.90;;;1.40;;
75798;SDS011;65035;44.726;37.764;2023-02-01T04:47:54;3.28;;;1.15;;
75798;SDS011;65035;44.726;37.764;2023-02-01T04:48:57;2.50;;;1.30;;
75798;SDS011;65035;44.726;37.764;2023-02-01T04:49:59;2.50;;;1.10;;
75798;SDS011;65035;44.726;37.764;2023-02-01T04:51:03;3.63;;;1.08;;
75798;SDS011;65035;44.726;37.764;2023-02-01T04:52:06;3.45;;;0.98;;
75798;SDS011;65035;44.726;37.764;2023-02-01T04:53:09;3.47;;;1.33;;
75798;SDS011;65035;44.726;37.764;2023-02-01T04:54:11;3.15;;;1.13;;
75798;SDS011;65035;44.726;37.764;2023-02-01T04:55:14;3.08;;;1.02;;
75798;SDS011;65035;44.726;37.764;2023-02-01T04:56:17;2.42;;;0.98;;
75798;SDS011;65035;44.726;37.764;2023-02-01T04:57:20;2.78;;;1.25;;
75798;SDS011;65035;44.726;37.764;2023-02-01T04:58:23;6.32;;;0.73;;
75798;SDS011;65035;44.726;37.764;2023-02-01T04:59:26;2.28;;;1.27;;
75798;SDS011;65035;44.726;37.764;2023-02-01T05:01:32;7.35;;;1.30;;
75798;SDS011;65035;44.726;37.764;2023-02-01T05:02:35;4.03;;;1.17;;
75798;SDS011;65035;44.726;37.764;2023-02-01T05:03:38;5.05;;;0.63;;
75798;SDS011;65035;44.726;37.764;2023-02-01T05:04:41;2.92;;;1.05;;
75798;SDS011;65035;44.726;37.764;2023-02-01T05:05:43;2.88;;;1.25;;
75798;SDS011;65035;44.726;37.764;2023-02-01T05:06:46;4.65;;;1.13;;
75798;SDS011;65035;44.726;37.764;2023-02-01T05:07:49;3.55;;;1.45;;
75798;SDS011;65035;44.726;37.764;2023-02-01T05:08:52;5.07;;;1.10;;
75798;SDS011;65035;44.726;37.764;2023-02-01T05:09:54;2.15;;;1.00;;
75798;SDS011;65035;44.726;37.764;2023-02-01T05:10:57;2.70;;;1.05;;
75798;SDS011;65035;44.726;37.764;2023-02-01T05:12:00;1.85;;;0.85;;
75798;SDS011;65035;44.726;37.764;2023-02-01T05:13:22;4.07;;;1.30;;
75798;SDS011;65035;44.726;37.764;2023-02-01T05:14:43;2.40;;;0.65;;
75798;SDS011;65035;44.726;37.764;2023-02-01T05:15:46;2.90;;;0.90;;
75798;SDS011;65035;44.726;37.764;2023-02-01T05:16:49;2.45;;;0.80;;
75798;SDS011;65035;44.726;37.764;2023-02-01T05:17:51;3.85;;;1.02;;
75798;SDS011;65035;44.726;37.764;2023-02-01T05:18:54;3.90;;;1.15;;
75798;SDS011;65035;44.726;37.764;2023-02-01T05:19:57;2.97;;;1.15;;
75798;SDS011;65035;44.726;37.764;2023-02-01T05:21:00;3.97;;;1.08;;
75798;SDS011;65035;44.726;37.764;2023-02-01T05:22:03;1.95;;;0.45;;
75798;SDS011;65035;44.726;37.764;2023-02-01T05:23:06;2.67;;;1.05;;
75798;SDS011;65035;44.726;37.764;2023-02-01T05:24:09;2.25;;;1.00;;
75798;SDS011;65035;44.726;37.764;2023-02-01T05:25:12;2.63;;;1.08;;
75798;SDS011;65035;44.726;37.764;2023-02-01T05:26:14;2.53;;;0.60;;
75798;SDS011;65035;44.726;37.764;2023-02-01T05:27:17;3.10;;;0.90;;
75798;SDS011;65035;44.726;37.764;2023-02-01T05:28:20;3.90;;;1.08;;
75798;SDS011;65035;44.726;37.764;2023-02-01T05:29:23;2.92;;;1.05;;
75798;SDS011;65035;44.726;37.764;2023-02-01T05:30:25;3.20;;;2.03;;
75798;SDS011;65035;44.726;37.764;2023-02-01T05:31:28;2.60;;;0.75;;
75798;SDS011;65035;44.726;37.764;2023-02-01T05:32:31;3.92;;;1.13;;
75798;SDS011;65035;44.726;37.764;2023-02-01T05:33:34;2.83;;;0.82;;
75798;SDS011;65035;44.726;37.764;2023-02-01T05:34:36;2.47;;;0.77;;
75798;SDS011;65035;44.726;37.764;2023-02-01T05:35:39;2.55;;;1.25;;
75798;SDS011;65035;44.726;37.764;2023-02-01T05:36:42;2.13;;;0.75;;
75798;SDS011;65035;44.726;37.764;2023-02-01T05:37:45;2.45;;;0.85;;
75798;SDS011;65035;44.726;37.764;2023-02-01T05:38:48;3.65;;;0.93;;
75798;SDS011;65035;44.726;37.764;2023-02-01T05:39:50;2.40;;;0.85;;
75798;SDS011;65035;44.726;37.764;2023-02-01T05:40:53;2.40;;;0.85;;
75798;SDS011;65035;44.726;37.764;2023-02-01T05:41:56;3.00;;;1.02;;
75798;SDS011;65035;44.726;37.764;2023-02-01T05:42:59;2.53;;;0.82;;
75798;SDS011;65035;44.726;37.764;2023-02-01T05:44:01;3.75;;;1.48;;
75798;SDS011;65035;44.726;37.764;2023-02-01T05:45:05;3.72;;;0.68;;
75798;SDS011;65035;44.726;37.764;2023-02-01T05:46:09;2.17;;;1.35;;
75798;SDS011;65035;44.726;37.764;2023-02-01T05:47:14;3.47;;;1.13;;
75798;SDS011;65035;44.726;37.764;2023-02-01T05:48:17;3.17;;;1.02;;
75798;SDS011;65035;44.726;37.764;2023-02-01T05:49:20;2.17;;;0.68;;
75798;SDS011;65035;44.726;37.764;2023-02-01T05:50:23;2.10;;;0.68;;
75798;SDS011;65035;44.726;37.764;2023-02-01T05:51:31;2.95;;;1.13;;
75798;SDS011;65035;44.726;37.764;2023-02-01T05:52:34;3.00;;;1.25;;
75798;SDS011;65035;44.726;37.764;2023-02-01T05:53:39;2.30;;;0.80;;
75798;SDS011;65035;44.726;37.764;2023-02-01T05:54:41;2.28;;;0.95;;
75798;SDS011;65035;44.726;37.764;2023-02-01T05:55:44;2.28;;;0.95;;
75798;SDS011;65035;44.726;37.764;2023-02-01T05:56:47;2.58;;;0.90;;
75798;SDS011;65035;44.726;37.764;2023-02-01T05:57:50;1.95;;;1.13;;
75798;SDS011;65035;44.726;37.764;2023-02-01T05:58:53;2.30;;;0.80;;
75798;SDS011;65035;44.726;37.764;2023-02-01T05:59:56;2.33;;;0.60;;
75798;SDS011;65035;44.726;37.764;2023-02-01T06:01:02;3.05;;;0.95;;
75798;SDS011;65035;44.726;37.764;2023-02-01T06:02:05;3.25;;;1.02;;
75798;SDS011;65035;44.726;37.764;2023-02-01T06:03:12;1.50;;;0.68;;
75798;SDS011;65035;44.726;37.764;2023-02-01T06:04:14;3.13;;;0.47;;
75798;SDS011;65035;44.726;37.764;2023-02-01T06:05:17;2.42;;;1.08;;
75798;SDS011;65035;44.726;37.764;2023-02-01T06:06:20;2.35;;;0.77;;
75798;SDS011;65035;44.726;37.764;2023-02-01T06:07:23;2.13;;;1.63;;
75798;SDS011;65035;44.726;37.764;2023-02-01T06:08:26;1.92;;;0.88;;
75798;SDS011;65035;44.726;37.764;2023-02-01T06:09:30;1.55;;;0.63;;
75798;SDS011;65035;44.726;37.764;2023-02-01T06:10:33;2.03;;;0.63;;
75798;SDS011;65035;44.726;37.764;2023-02-01T06:11:35;2.60;;;0.80;;
75798;SDS011;65035;44.726;37.764;2023-02-01T06:12:38;2.53;;;0.98;;
75798;SDS011;65035;44.726;37.764;2023-02-01T06:13:41;2.17;;;0.77;;
75798;SDS011;65035;44.726;37.764;2023-02-01T06:14:44;2.58;;;1.00;;
75798;SDS011;65035;44.726;37.764;2023-02-01T06:15:47;1.50;;;0.75;;
75798;SDS011;65035;44.726;37.764;2023-02-01T06:16:50;1.73;;;1.02;;
75798;SDS011;65035;44.726;37.764;2023-02-01T06:17:52;3.80;;;1.17;;
75798;SDS011;65035;44.726;37.764;2023-02-01T06:18:57;2.42;;;0.63;;
75798;SDS011;65035;44.726;37.764;2023-02-01T06:20:00;2.03;;;0.75;;
75798;SDS011;65035;44.726;37.764;2023-02-01T06:21:04;3.47;;;0.93;;
75798;SDS011;65035;44.726;37.764;2023-02-01T06:22:07;2.10;;;0.80;;
75798;SDS011;65035;44.726;37.764;2023-02-01T06:23:10;2.13;;;0.95;;
75798;SDS011;65035;44.726;37.764;2023-02-01T06:24:12;1.88;;;0.75;;
75798;SDS011;65035;44.726;37.764;2023-02-01T06:25:18;1.90;;;0.80;;
75798;SDS011;65035;44.726;37.764;2023-02-01T06:26:21;1.58;;;0.43;;
75798;SDS011;65035;44.726;37.764;2023-02-01T06:27:24;1.67;;;0.45;;
75798;SDS011;65035;44.726;37.764;2023-02-01T06:28:27;2.60;;;0.43;;
75798;SDS011;65035;44.726;37.764;2023-02-01T06:29:31;1.65;;;0.68;;
75798;SDS011;65035;44.726;37.764;2023-02-01T06:30:36;1.73;;;1.00;;
75798;SDS011;65035;44.726;37.764;2023-02-01T06:31:43;1.70;;;0.90;;
75798;SDS011;65035;44.726;37.764;2023-02-01T06:32:49;1.70;;;0.88;;
75798;SDS011;65035;44.726;37.764;2023-02-01T06:33:55;2.83;;;1.33;;
75798;SDS011;65035;44.726;37.764;2023-02-01T06:34:58;2.05;;;1.23;;
75798;SDS011;65035;44.726;37.764;2023-02-01T06:36:04;3.65;;;1.02;;
75798;SDS011;65035;44.726;37.764;2023-02-01T06:37:09;3.22;;;0.88;;
75798;SDS011;65035;44.726;37.764;2023-02-01T06:38:13;3.45;;;1.63;;
75798;SDS011;65035;44.726;37.764;2023-02-01T06:39:16;2.67;;;0.73;;
75798;SDS011;65035;44.726;37.764;2023-02-01T06:40:19;2.20;;;0.80;;
75798;SDS011;65035;44.726;37.764;2023-02-01T06:41:22;3.92;;;1.45;;
75798;SDS011;65035;44.726;37.764;2023-02-01T06:42:25;3.35;;;1.20;;
75798;SDS011;65035;44.726;37.764;2023-02-01T06:43:28;2.30;;;0.93;;
75798;SDS011;65035;44.726;37.764;2023-02-01T06:44:31;2.30;;;1.13;;
75798;SDS011;65035;44.726;37.764;2023-02-01T06:45:34;2.75;;;0.93;;
75798;SDS011;65035;44.726;37.764;2023-02-01T06:46:37;3.65;;;1.10;;
75798;SDS011;65035;44.726;37.764;2023-02-01T06:47:40;3.03;;;0.90;;
75798;SDS011;65035;44.726;37.764;2023-02-01T06:48:43;2.35;;;1.05;;
75798;SDS011;65035;44.726;37.764;2023-02-01T06:49:48;2.08;;;0.77;;
75798;SDS011;65035;44.726;37.764;2023-02-01T06:50:50;1.95;;;1.15;;
75798;SDS011;65035;44.726;37.764;2023-02-01T06:51:53;2.90;;;1.23;;
75798;SDS011;65035;44.726;37.764;2023-02-01T06:53:03;1.50;;;0.63;;
75798;SDS011;65035;44.726;37.764;2023-02-01T06:54:06;1.90;;;1.02;;
75798;SDS011;65035;44.726;37.764;2023-02-01T06:55:09;2.75;;;1.48;;
75798;SDS011;65035;44.726;37.764;2023-02-01T06:56:11;2.25;;;1.00;;
75798;SDS011;65035;44.726;37.764;2023-02-01T06:57:14;2.08;;;0.80;;
75798;SDS011;65035;44.726;37.764;2023-02-01T06:58:17;2.65;;;0.45;;
75798;SDS011;65035;44.726;37.764;2023-02-01T06:59:20;1.98;;;0.30;;
75798;SDS011;65035;44.726;37.764;2023-02-01T07:00:23;2.00;;;0.63;;
75798;SDS011;65035;44.726;37.764;2023-02-01T07:01:26;2.92;;;0.73;;